Time;durP1;ratioP1;P1;durP2;ratioP2;P2;SDS_P1;SDS_P2;PMS_P1;PMS_P2;Temp;Humidity;BMP_temperature;BMP_pressure;BME280_temperature;BME280_humidity;BME280_pressure;Samples;Min_cycle;Max_cycle;Signal;HPM_P1;HPM_P2
2023/09/25 00:04:03;;;;;;;7.30;6.60;;;;;;;14.90;79.06;99825.57;225653;1279;138531;-72
2023/09/25 00:09:05;;;;;;;7.00;6.40;;;;;;;14.92;78.92;99827.60;225865;1280;22541;-72
2023/09/25 00:14:08;;;;;;;5.40;4.60;;;;;;;14.95;79.14;99831.48;225733;1275;139305;-72
2023/09/25 00:19:10;;;;;;;4.70;3.50;;;;;;;14.98;79.15;99826.35;225702;1275;139382;-72
2023/09/25 00:24:12;;;;;;;3.70;2.80;;;;;;;14.99;78.86;99830.60;225679;1279;138568;-72
2023/09/25 00:29:14;;;;;;;3.30;2.50;;;;;;;15.00;78.93;99837.57;225912;1280;138276;-72
2023/09/25 00:34:16;;;;;;;3.90;2.90;;;;;;;15.03;79.11;99834.77;225806;1273;139496;-72
2023/09/25 00:39:18;;;;;;;3.40;3.10;;;;;;;15.05;79.10;99830.71;225794;1275;23641;-72
2023/09/25 00:44:22;;;;;;;4.30;2.90;;;;;;;15.07;78.75;99824.86;225803;1278;138002;-72
2023/09/25 00:49:26;;;;;;;4.80;3.50;;;;;;;15.08;78.91;99818.38;225841;1279;138877;-73
2023/09/25 00:54:33;;;;;;;10.50;9.30;;;;;;;15.08;78.68;99813.02;225821;1278;138716;-73
2023/09/25 00:59:43;;;;;;;8.90;8.00;;;;;;;15.08;78.79;99819.92;225914;1277;139101;-72
2023/09/25 01:04:46;;;;;;;6.20;5.70;;;;;;;15.08;78.87;99816.56;225837;1273;138907;-72
2023/09/25 01:10:14;;;;;;;5.80;4.00;;;;;;;15.08;78.74;99809.41;225829;1276;138464;-72
2023/09/25 01:15:16;;;;;;;5.00;3.60;;;;;;;15.07;78.75;99814.89;226011;1272;22630;-72
2023/09/25 01:20:19;;;;;;;5.00;3.70;;;;;;;15.06;78.69;99814.87;225752;1275;140281;-72
2023/09/25 01:25:24;;;;;;;5.20;4.00;;;;;;;15.05;78.66;99809.09;225830;1276;140889;-72
2023/09/25 01:30:28;;;;;;;5.80;3.80;;;;;;;15.06;79.00;99804.93;225820;1278;138282;-72
2023/09/25 01:35:30;;;;;;;4.00;3.50;;;;;;;15.05;79.13;99808.20;225795;1278;138396;-73
2023/09/25 01:40:32;;;;;;;5.00;3.40;;;;;;;15.04;78.84;99805.19;225667;1278;174812;-72
2023/09/25 01:45:34;;;;;;;4.80;3.00;;;;;;;15.01;79.03;99805.02;225784;1276;138245;-72
2023/09/25 01:50:36;;;;;;;2.80;2.50;;;;;;;14.97;79.17;99801.25;225944;1275;22557;-72
2023/09/25 01:55:40;;;;;;;3.60;2.60;;;;;;;14.96;79.06;99798.24;225879;1272;137849;-72
2023/09/25 02:00:43;;;;;;;4.00;2.40;;;;;;;14.92;79.23;99785.39;225813;1279;138452;-72
2023/09/25 02:05:45;;;;;;;3.40;2.60;;;;;;;14.87;79.52;99777.71;225570;1279;138248;-71
2023/09/25 02:10:47;;;;;;;3.10;2.70;;;;;;;14.81;79.35;99777.89;225586;1280;139112;-72
2023/09/25 02:15:49;;;;;;;3.20;2.60;;;;;;;14.76;79.67;99776.60;225731;1279;139080;-72
2023/09/25 02:20:52;;;;;;;3.20;2.60;;;;;;;14.71;79.64;99765.70;225859;1279;22536;-71
2023/09/25 02:25:55;;;;;;;2.90;2.60;;;;;;;14.64;79.74;99764.79;225827;1276;138304;-72
2023/09/25 02:30:57;;;;;;;5.30;2.90;;;;;;;14.57;80.08;99763.69;225742;1278;138462;-72
2023/09/25 02:36:05;;;;;;;4.20;3.80;;;;;;;14.54;80.08;99759.00;225823;1277;138453;-72
2023/09/25 02:41:08;;;;;;;6.00;3.80;;;;;;;14.54;80.55;99759.29;225804;1279;138292;-72
2023/09/25 02:46:10;;;;;;;3.60;3.10;;;;;;;14.53;80.45;99756.30;225900;1275;138519;-72
2023/09/25 02:51:12;;;;;;;4.10;3.50;;;;;;;14.51;80.47;99755.29;225724;1280;25398;-72
2023/09/25 02:56:14;;;;;;;4.20;3.00;;;;;;;14.49;80.60;99754.98;225781;1279;138062;-73
2023/09/25 03:01:17;;;;;;;3.40;2.80;;;;;;;14.52;80.85;99755.52;225806;1278;138422;-72
2023/09/25 03:06:19;;;;;;;3.20;2.90;;;;;;;14.51;80.63;99750.39;225751;1280;138335;-72
2023/09/25 03:11:21;;;;;;;4.70;3.40;;;;;;;14.48;80.66;99752.73;225658;1280;138196;-72
2023/09/25 03:16:23;;;;;;;4.10;3.00;;;;;;;14.44;80.72;99757.50;225745;1278;138573;-72
2023/09/25 03:21:26;;;;;;;4.00;3.20;;;;;;;14.41;81.10;99749.02;225772;1275;23303;-73
2023/09/25 03:26:28;;;;;;;5.30;3.40;;;;;;;14.39;81.27;99744.77;225951;1275;137988;-73
2023/09/25 03:31:30;;;;;;;5.30;3.60;;;;;;;14.39;81.27;99742.15;225817;1278;138488;-73
2023/09/25 03:36:32;;;;;;;5.60;3.30;;;;;;;14.37;81.03;99747.11;225903;1276;138596;-73
2023/09/25 03:41:34;;;;;;;6.20;3.70;;;;;;;14.37;81.07;99742.07;225606;1280;138839;-72
2023/09/25 03:46:36;;;;;;;4.80;4.10;;;;;;;14.35;81.30;99744.02;225772;1280;138560;-72
2023/09/25 03:51:38;;;;;;;7.20;6.40;;;;;;;14.33;81.38;99745.57;225856;1274;137909;-73
2023/09/25 03:56:41;;;;;;;9.50;8.30;;;;;;;14.30;81.28;99750.02;225897;1274;22540;-74
2023/09/25 04:01:43;;;;;;;11.30;8.90;;;;;;;14.26;81.47;99754.73;225720;1278;139012;-74
2023/09/25 04:06:45;;;;;;;12.30;11.00;;;;;;;14.26;81.51;99764.50;225816;1280;138669;-74
2023/09/25 04:11:48;;;;;;;11.50;10.30;;;;;;;14.30;81.80;99772.33;225693;1276;138844;-74
2023/09/25 04:16:50;;;;;;;9.90;8.90;;;;;;;14.36;81.78;99761.85;225825;1277;138853;-74
2023/09/25 04:21:53;;;;;;;9.80;8.70;;;;;;;14.44;82.09;99766.05;225882;1279;138997;-74
2023/09/25 04:26:55;;;;;;;8.50;6.80;;;;;;;14.50;81.88;99763.02;225833;1280;22563;-74
2023/09/25 04:31:57;;;;;;;9.10;7.00;;;;;;;14.55;81.79;99766.31;225889;1273;138356;-74
2023/09/25 04:36:59;;;;;;;11.00;9.90;;;;;;;14.59;82.11;99761.00;225818;1273;138245;-74
2023/09/25 04:42:01;;;;;;;11.80;10.60;;;;;;;14.65;82.27;99768.36;225829;1276;138714;-74
2023/09/25 04:47:04;;;;;;;12.50;11.00;;;;;;;14.70;82.03;99770.93;225928;1274;139052;-73
2023/09/25 04:52:06;;;;;;;13.30;12.10;;;;;;;14.74;81.94;99774.33;225883;1278;138922;-73
2023/09/25 04:57:08;;;;;;;14.70;11.80;;;;;;;14.79;81.91;99775.70;226005;1275;24233;-74
2023/09/25 05:02:10;;;;;;;12.00;10.70;;;;;;;14.84;82.15;99778.23;225919;1277;138908;-73
2023/09/25 05:07:12;;;;;;;9.40;8.50;;;;;;;14.90;81.86;99782.34;225884;1276;138541;-73
2023/09/25 05:12:14;;;;;;;7.60;6.70;;;;;;;14.93;82.02;99790.43;225880;1276;138445;-73
2023/09/25 05:17:16;;;;;;;7.90;6.60;;;;;;;14.99;81.87;99786.84;225744;1278;138522;-74
2023/09/25 05:22:18;;;;;;;8.90;7.10;;;;;;;15.04;81.72;99786.59;225767;1278;138713;-73
2023/09/25 05:27:21;;;;;;;7.50;6.70;;;;;;;15.08;81.91;99787.21;225874;1275;22995;-73
2023/09/25 05:32:23;;;;;;;7.80;7.00;;;;;;;15.13;81.82;99786.77;225924;1277;138353;-73
2023/09/25 05:37:25;;;;;;;8.70;7.50;;;;;;;15.17;81.61;99785.30;225767;1272;138536;-73
2023/09/25 05:42:27;;;;;;;11.50;7.80;;;;;;;15.16;81.62;99787.96;225737;1276;138452;-74
2023/09/25 05:47:29;;;;;;;10.30;7.90;;;;;;;15.21;81.82;99786.90;225483;1256;138764;-74
2023/09/25 05:52:31;;;;;;;9.70;8.30;;;;;;;15.29;81.74;99786.39;225721;1272;138532;-74
2023/09/25 05:57:37;;;;;;;11.30;8.50;;;;;;;15.35;81.81;99785.95;225709;1268;138400;-74
2023/09/25 06:02:40;;;;;;;11.80;9.30;;;;;;;15.38;81.89;99789.83;225360;1257;24193;-74
2023/09/25 06:07:43;;;;;;;11.50;10.30;;;;;;;15.44;82.09;99796.54;225464;1260;138607;-74
2023/09/25 06:12:46;;;;;;;11.30;10.20;;;;;;;15.53;81.99;99794.72;225170;1259;138817;-74
2023/09/25 06:17:48;;;;;;;12.60;10.90;;;;;;;15.63;82.01;99802.34;225408;1260;138935;-74
2023/09/25 06:22:51;;;;;;;13.80;11.60;;;;;;;15.72;82.03;99798.92;225063;1259;138846;-74
2023/09/25 06:27:53;;;;;;;12.60;10.70;;;;;;;15.81;81.89;99795.08;225039;1259;138743;-74
2023/09/25 06:32:55;;;;;;;14.00;10.70;;;;;;;15.90;81.65;99791.77;225232;1260;22536;-74
2023/09/25 06:37:57;;;;;;;14.20;10.70;;;;;;;15.99;81.55;99794.63;225124;1259;140540;-74
2023/09/25 06:43:00;;;;;;;14.20;11.00;;;;;;;16.10;81.61;99803.02;225154;1259;138925;-75
2023/09/25 06:48:02;;;;;;;15.00;11.10;;;;;;;16.18;81.30;99804.27;225111;1260;138337;-76
2023/09/25 06:53:04;;;;;;;14.90;11.00;;;;;;;16.22;81.20;99805.77;225185;1266;138992;-76
2023/09/25 06:58:05;;;;;;;14.30;10.70;;;;;;;16.30;81.23;99802.02;225195;1264;138779;-77
2023/09/25 07:03:09;;;;;;;13.80;10.60;;;;;;;16.41;81.08;99798.09;225077;1260;22590;-76
2023/09/25 07:08:12;;;;;;;13.90;9.80;;;;;;;16.49;80.95;99791.12;224880;1267;138812;-76
2023/09/25 07:13:16;;;;;;;15.80;10.60;;;;;;;16.59;80.99;99791.29;225068;1266;138771;-76
2023/09/25 07:18:18;;;;;;;13.80;11.10;;;;;;;16.66;80.93;99787.79;225456;1262;139011;-75
2023/09/25 07:23:20;;;;;;;15.70;11.90;;;;;;;16.74;80.83;99787.20;225593;1257;138811;-76
2023/09/25 07:28:22;;;;;;;14.90;12.10;;;;;;;16.82;80.71;99785.64;225485;1262;138756;-75
2023/09/25 07:33:24;;;;;;;16.30;13.60;;;;;;;16.95;80.73;99794.69;225633;1256;25272;-76
2023/09/25 07:38:26;;;;;;;17.90;13.30;;;;;;;17.01;80.49;99798.52;225490;1259;138361;-76
2023/09/25 07:43:29;;;;;;;19.20;13.40;;;;;;;17.07;80.46;99794.33;225329;1272;138598;-76
2023/09/25 07:48:37;;;;;;;17.40;14.30;;;;;;;17.13;80.71;99794.20;225453;1270;138933;-76
2023/09/25 07:53:42;;;;;;;19.70;14.30;;;;;;;17.21;80.61;99798.71;225321;1261;138860;-76
2023/09/25 07:58:44;;;;;;;18.00;13.30;;;;;;;17.27;80.37;99807.06;225427;1260;139155;-76
2023/09/25 08:03:46;;;;;;;21.60;15.00;;;;;;;17.21;80.11;99814.42;225395;1260;139197;-74
2023/09/25 08:08:48;;;;;;;18.70;14.90;;;;;;;17.20;80.43;99817.10;225648;1260;22553;-76
2023/09/25 08:13:53;;;;;;;21.80;15.80;;;;;;;17.21;80.70;99812.28;225527;1256;139155;-74
2023/09/25 08:18:55;;;;;;;19.60;15.20;;;;;;;17.26;80.71;99807.30;225232;1260;138740;-74
2023/09/25 08:23:57;;;;;;;21.40;15.20;;;;;;;17.38;80.68;99802.58;225489;1265;139360;-74
2023/09/25 08:29:01;;;;;;;18.00;13.40;;;;;;;17.49;80.46;99797.73;225344;1259;138815;-74
2023/09/25 08:34:03;;;;;;;16.30;12.30;;;;;;;17.56;80.49;99806.52;225505;1272;138910;-75
2023/09/25 08:39:08;;;;;;;13.30;11.40;;;;;;;17.64;80.40;99809.31;225420;1267;22543;-73
2023/09/25 08:44:15;;;;;;;14.90;10.80;;;;;;;17.69;80.43;99808.77;225459;1260;138423;-73
2023/09/25 08:49:17;;;;;;;12.50;10.80;;;;;;;17.71;80.27;99806.52;225406;1275;138600;-74
2023/09/25 08:54:19;;;;;;;16.00;11.00;;;;;;;17.71;80.19;99810.05;225358;1266;138724;-74
2023/09/25 08:59:23;;;;;;;12.40;10.70;;;;;;;17.74;80.30;99807.13;225132;1277;139568;-74
2023/09/25 09:04:25;;;;;;;13.40;11.50;;;;;;;17.76;80.16;99804.00;225294;1272;138722;-74
2023/09/25 09:09:27;;;;;;;12.00;10.40;;;;;;;17.86;80.38;99806.35;225637;1276;22541;-75
2023/09/25 09:14:41;;;;;;;12.10;10.20;;;;;;;18.02;80.20;99803.42;225875;1266;22543;-73
2023/09/25 09:19:46;;;;;;;12.40;10.80;;;;;;;18.15;79.99;99801.98;225581;1262;138861;-73
2023/09/25 09:24:53;;;;;;;11.60;10.10;;;;;;;18.25;79.71;99801.29;225592;1277;139058;-73
2023/09/25 09:29:57;;;;;;;12.50;10.50;;;;;;;18.32;79.57;99796.34;225432;1278;138757;-74
2023/09/25 09:35:03;;;;;;;14.10;9.90;;;;;;;18.42;79.56;99799.80;225621;1269;138825;-74
2023/09/25 09:40:11;;;;;;;23.00;10.70;;;;;;;18.49;79.45;99803.06;225622;1261;138763;-76
2023/09/25 09:45:13;;;;;;;10.50;8.90;;;;;;;18.56;79.30;99800.88;225605;1275;22550;-74
2023/09/25 09:50:20;;;;;;;11.10;9.70;;;;;;;18.58;79.06;99790.55;225459;1272;138475;-74
2023/09/25 09:55:22;;;;;;;11.80;9.20;;;;;;;18.69;79.23;99795.02;225696;1278;138494;-74
2023/09/25 10:00:24;;;;;;;11.50;9.00;;;;;;;18.81;78.95;99794.45;225685;1256;138724;-73
2023/09/25 10:05:26;;;;;;;12.70;9.60;;;;;;;18.95;78.97;99797.86;225525;1276;138580;-76
2023/09/25 10:10:28;;;;;;;9.80;8.00;;;;;;;19.08;78.78;99794.38;225535;1272;138634;-75
2023/09/25 10:15:31;;;;;;;8.70;7.80;;;;;;;19.19;78.52;99801.26;225575;1262;138343;-75
2023/09/25 10:20:45;;;;;;;8.40;7.10;;;;;;;19.24;78.36;99800.69;225750;1275;22549;-73
2023/09/25 10:25:50;;;;;;;9.40;8.50;;;;;;;19.25;77.98;99795.04;225602;1268;138007;-74
2023/09/25 10:30:56;;;;;;;8.10;7.30;;;;;;;19.23;78.02;99798.46;225663;1261;138367;-74
2023/09/25 10:36:04;;;;;;;22.50;8.90;;;;;;;19.30;78.17;99802.16;225760;1275;138396;-74
2023/09/25 10:41:07;;;;;;;14.10;7.00;;;;;;;19.32;78.02;99803.82;225678;1262;139117;-75
2023/09/25 10:46:09;;;;;;;62.40;10.60;;;;;;;19.35;77.95;99802.52;225516;1277;138642;-74
2023/09/25 10:51:11;;;;;;;30.80;8.80;;;;;;;19.40;77.99;99805.26;225457;1268;22536;-74
2023/09/25 10:56:13;;;;;;;9.20;6.40;;;;;;;19.39;77.82;99806.00;225669;1269;138253;-77
2023/09/25 11:01:23;;;;;;;6.30;5.70;;;;;;;19.50;78.12;99808.59;225640;1273;138677;-76
2023/09/25 11:06:26;;;;;;;20.20;7.20;;;;;;;19.64;78.03;99804.55;225663;1268;138435;-75
2023/09/25 11:11:29;;;;;;;5.80;5.30;;;;;;;19.80;77.91;99805.35;225559;1278;138584;-75
2023/09/25 11:16:31;;;;;;;6.20;5.20;;;;;;;19.84;77.38;99801.63;225353;1273;138542;-75
2023/09/25 11:21:33;;;;;;;5.50;4.60;;;;;;;19.91;77.46;99800.68;225562;1268;138392;-75
2023/09/25 11:26:39;;;;;;;5.70;5.10;;;;;;;19.98;77.14;99799.73;225478;1280;22536;-74
2023/09/25 11:31:41;;;;;;;7.50;5.20;;;;;;;20.09;77.09;99805.08;225564;1280;138172;-75
2023/09/25 11:37:02;;;;;;;8.10;5.30;;;;;;;20.14;76.63;99800.50;225579;1257;138287;-75
2023/09/25 11:42:04;;;;;;;8.10;5.80;;;;;;;20.20;76.59;99803.30;225479;1277;138413;-76
2023/09/25 11:47:06;;;;;;;8.20;5.30;;;;;;;20.21;76.58;99805.31;225518;1265;138448;-75
2023/09/25 11:52:11;;;;;;;5.80;5.20;;;;;;;20.27;76.49;99802.11;225646;1276;138418;-75
2023/09/25 11:57:13;;;;;;;6.20;5.60;;;;;;;20.29;76.08;99803.94;225795;1278;23233;-75
2023/09/25 12:02:15;;;;;;;6.00;5.40;;;;;;;20.33;76.09;99797.81;225516;1277;137662;-75
2023/09/25 12:07:17;;;;;;;6.10;5.50;;;;;;;20.32;75.83;99801.18;225614;1278;139442;-76
2023/09/25 12:12:19;;;;;;;6.30;5.30;;;;;;;20.29;76.12;99800.02;225656;1280;138645;-75
2023/09/25 12:17:21;;;;;;;5.90;5.30;;;;;;;20.31;76.00;99796.83;225527;1275;138470;-75
2023/09/25 12:22:24;;;;;;;6.40;5.80;;;;;;;20.26;75.70;99791.13;225670;1262;138877;-75
2023/09/25 12:27:27;;;;;;;6.40;5.70;;;;;;;20.22;75.67;99791.10;225819;1275;22683;-75
2023/09/25 12:32:29;;;;;;;6.50;5.50;;;;;;;20.21;75.87;99793.17;225816;1260;22530;-75
2023/09/25 12:37:31;;;;;;;7.30;5.70;;;;;;;20.26;75.97;99797.99;225576;1270;138130;-75
2023/09/25 12:42:34;;;;;;;5.50;5.10;;;;;;;20.33;75.83;99793.26;225528;1272;138548;-74
2023/09/25 12:47:54;;;;;;;6.90;6.00;;;;;;;20.37;75.72;99792.25;225545;1260;138618;-74
2023/09/25 12:52:55;;;;;;;6.50;5.80;;;;;;;20.50;75.80;99790.15;225539;1276;138501;-75
2023/09/25 12:57:57;;;;;;;5.70;5.30;;;;;;;20.65;75.58;99796.35;225639;1275;138408;-72
2023/09/25 13:02:59;;;;;;;7.00;5.20;;;;;;;20.84;75.42;99797.83;225644;1265;22577;-72
2023/09/25 13:08:01;;;;;;;5.70;5.20;;;;;;;21.03;75.28;99796.89;225477;1272;138683;-72
2023/09/25 13:13:03;;;;;;;7.70;5.70;;;;;;;21.12;74.50;99795.58;225304;1272;138378;-72
2023/09/25 13:18:05;;;;;;;6.50;5.80;;;;;;;21.11;74.18;99785.48;225441;1275;138451;-71
2023/09/25 13:23:07;;;;;;;6.60;5.90;;;;;;;21.13;74.39;99786.71;225575;1273;138400;-71
2023/09/25 13:28:09;;;;;;;6.80;5.80;;;;;;;21.19;74.25;99791.11;225494;1262;139322;-72
2023/09/25 13:33:11;;;;;;;7.50;6.30;;;;;;;21.30;74.38;99794.41;225755;1262;22544;-72
2023/09/25 13:38:13;;;;;;;8.50;6.70;;;;;;;21.37;74.08;99797.88;225742;1276;138179;-73
2023/09/25 13:43:15;;;;;;;7.10;6.40;;;;;;;21.48;74.03;99796.17;225535;1266;138242;-72
2023/09/25 13:48:17;;;;;;;6.60;6.00;;;;;;;21.53;73.74;99790.42;225511;1262;138403;-73
2023/09/25 13:53:19;;;;;;;7.90;6.80;;;;;;;21.48;73.57;99788.77;225488;1263;138576;-73
2023/09/25 13:58:21;;;;;;;8.00;7.20;;;;;;;21.38;73.22;99782.60;225577;1262;138730;-74
2023/09/25 14:03:23;;;;;;;8.90;6.90;;;;;;;21.29;73.46;99776.27;225266;1278;22541;-73
2023/09/25 14:08:25;;;;;;;6.80;6.00;;;;;;;21.25;73.50;99765.90;225375;1277;137865;-72
2023/09/25 14:13:27;;;;;;;7.00;6.30;;;;;;;21.22;73.41;99764.05;225306;1263;139233;-72
2023/09/25 14:18:29;;;;;;;7.80;6.80;;;;;;;21.22;73.44;99758.95;225393;1278;138396;-72
2023/09/25 14:23:31;;;;;;;7.30;6.70;;;;;;;21.21;73.42;99763.41;225512;1275;138634;-72
2023/09/25 14:28:33;;;;;;;7.70;7.10;;;;;;;21.17;73.45;99760.15;225411;1278;138422;-72
2023/09/25 14:33:39;;;;;;;8.60;6.80;;;;;;;21.08;73.43;99761.08;225685;1279;138422;-72
2023/09/25 14:38:41;;;;;;;7.60;6.90;;;;;;;21.04;73.76;99761.08;225826;1280;22556;-72
2023/09/25 14:43:43;;;;;;;8.80;7.20;;;;;;;21.00;73.79;99762.20;225897;1276;138094;-72
2023/09/25 14:48:46;;;;;;;7.70;6.80;;;;;;;20.95;73.94;99770.69;225955;1278;139210;-72
2023/09/25 14:53:49;;;;;;;7.30;6.60;;;;;;;20.87;74.18;99768.50;226025;1280;138419;-71
2023/09/25 14:58:51;;;;;;;7.30;6.60;;;;;;;20.84;74.32;99766.84;226020;1280;138563;-72
2023/09/25 15:03:53;;;;;;;7.90;6.50;;;;;;;20.69;74.34;99765.90;225909;1278;138466;-72
2023/09/25 15:08:56;;;;;;;8.50;6.50;;;;;;;20.52;74.55;99767.60;226187;1280;22545;-72
2023/09/25 15:13:58;;;;;;;8.10;7.20;;;;;;;20.28;74.71;99765.30;226083;1280;139182;-72
2023/09/25 15:19:02;;;;;;;8.10;7.30;;;;;;;20.06;75.29;99771.83;225971;1278;138193;-72
2023/09/25 15:24:05;;;;;;;8.50;7.60;;;;;;;19.90;75.76;99774.27;225936;1276;138451;-72
2023/09/25 15:29:07;;;;;;;10.40;7.30;;;;;;;19.76;75.97;99773.86;225945;1278;138529;-72
2023/09/25 15:34:09;;;;;;;7.50;6.80;;;;;;;19.65;76.44;99776.95;226025;1276;138573;-71
2023/09/25 15:39:11;;;;;;;8.10;6.60;;;;;;;19.61;76.77;99771.61;226020;1280;22543;-72
2023/09/25 15:44:13;;;;;;;8.90;6.90;;;;;;;19.55;76.91;99775.37;225937;1280;138278;-72
2023/09/25 15:49:16;;;;;;;7.30;6.60;;;;;;;19.47;77.07;99771.52;226111;1279;138473;-74
2023/09/25 15:54:18;;;;;;;8.10;6.80;;;;;;;19.42;77.35;99770.97;225908;1280;138630;-74
2023/09/25 15:59:20;;;;;;;7.10;6.40;;;;;;;19.38;77.59;99767.41;226069;1279;138489;-72
2023/09/25 16:04:22;;;;;;;9.10;6.80;;;;;;;19.29;77.64;99766.98;226049;1276;138450;-72
2023/09/25 16:09:24;;;;;;;10.70;7.00;;;;;;;19.23;77.93;99769.23;226110;1273;22558;-73
2023/09/25 16:14:30;;;;;;;8.40;6.90;;;;;;;19.17;78.07;99769.69;225783;1279;138063;-72
2023/09/25 16:19:32;;;;;;;10.80;7.70;;;;;;;19.11;78.25;99768.65;225925;1280;138440;-73
2023/09/25 16:24:34;;;;;;;8.20;7.40;;;;;;;19.05;78.54;99766.67;225997;1280;138558;-72
2023/09/25 16:29:36;;;;;;;8.40;7.40;;;;;;;19.02;78.94;99769.04;225765;1275;138415;-73
2023/09/25 16:34:38;;;;;;;10.30;8.30;;;;;;;18.95;79.05;99768.90;225891;1277;138736;-73
2023/09/25 16:39:40;;;;;;;10.10;7.90;;;;;;;18.87;79.15;99775.79;226036;1280;138713;-73
2023/09/25 16:44:42;;;;;;;8.30;7.50;;;;;;;18.78;79.36;99778.13;225989;1277;22531;-72
2023/09/25 16:49:44;;;;;;;11.10;8.80;;;;;;;18.73;79.67;99777.78;226045;1279;138091;-73
2023/09/25 16:54:46;;;;;;;9.60;8.00;;;;;;;18.70;79.88;99780.35;225865;1279;138754;-74
2023/09/25 16:59:51;;;;;;;9.50;8.40;;;;;;;18.64;79.92;99786.82;225910;1279;138351;-73
2023/09/25 17:04:53;;;;;;;9.20;8.10;;;;;;;18.60;79.98;99795.32;225893;1274;138659;-71
2023/09/25 17:09:57;;;;;;;11.00;8.80;;;;;;;18.54;80.17;99796.86;225901;1279;138398;-74
2023/09/25 17:14:59;;;;;;;10.60;8.30;;;;;;;18.51;80.53;99803.14;226113;1277;22549;-73
2023/09/25 17:20:01;;;;;;;8.70;7.90;;;;;;;18.50;80.53;99804.87;225919;1280;138253;-72
2023/09/25 17:25:05;;;;;;;10.60;8.50;;;;;;;18.49;80.86;99808.50;226076;1276;138284;-72
2023/09/25 17:30:07;;;;;;;11.30;8.40;;;;;;;18.46;80.84;99808.55;226121;1277;138586;-73
2023/09/25 17:35:11;;;;;;;11.10;9.50;;;;;;;18.42;81.01;99811.94;225731;1280;138795;-73
2023/09/25 17:40:13;;;;;;;13.70;8.80;;;;;;;18.38;81.24;99812.68;226000;1279;138576;-72
2023/09/25 17:45:16;;;;;;;11.00;9.20;;;;;;;18.34;81.45;99817.51;225974;1278;22552;-72
2023/09/25 17:50:18;;;;;;;10.00;9.00;;;;;;;18.32;81.63;99821.17;225946;1279;138210;-72
2023/09/25 17:55:20;;;;;;;10.90;9.80;;;;;;;18.25;81.63;99820.13;226057;1277;138582;-73
2023/09/25 18:00:23;;;;;;;11.10;9.50;;;;;;;18.22;81.90;99820.65;225916;1279;138805;-72
2023/09/25 18:05:25;;;;;;;12.30;10.70;;;;;;;18.20;81.98;99817.52;226032;1276;138687;-72
2023/09/25 18:10:30;;;;;;;11.80;10.50;;;;;;;18.18;82.17;99814.19;225875;1273;138863;-73
2023/09/25 18:15:32;;;;;;;12.70;10.70;;;;;;;18.17;82.30;99818.59;225923;1276;139328;-74
2023/09/25 18:20:34;;;;;;;10.60;9.50;;;;;;;18.16;82.42;99818.73;226019;1279;22552;-72
2023/09/25 18:25:38;;;;;;;12.40;9.60;;;;;;;18.14;82.38;99819.30;225979;1273;138406;-72
2023/09/25 18:30:40;;;;;;;12.40;10.10;;;;;;;18.08;82.33;99819.46;225946;1259;139699;-72
2023/09/25 18:35:42;;;;;;;13.30;10.70;;;;;;;18.03;82.54;99820.38;226032;1276;139945;-74
2023/09/25 18:40:44;;;;;;;12.80;10.60;;;;;;;18.01;82.75;99823.71;225964;1273;138889;-72
2023/09/25 18:45:45;;;;;;;11.80;9.60;;;;;;;17.98;82.90;99825.85;225905;1278;138811;-73
2023/09/25 18:50:48;;;;;;;11.50;10.20;;;;;;;17.95;82.94;99825.06;226069;1276;25408;-73
2023/09/25 18:55:50;;;;;;;14.10;10.40;;;;;;;17.92;82.99;99822.59;226004;1260;138639;-74
2023/09/25 19:00:53;;;;;;;12.80;10.90;;;;;;;17.88;83.16;99819.35;225916;1276;138638;-73
2023/09/25 19:05:55;;;;;;;13.10;10.00;;;;;;;17.87;83.45;99820.59;225845;1279;138966;-74
2023/09/25 19:10:57;;;;;;;11.90;9.80;;;;;;;17.86;83.48;99818.23;225872;1280;139139;-73
2023/09/25 19:15:59;;;;;;;12.20;9.70;;;;;;;17.85;83.49;99822.92;225926;1280;138540;-72
2023/09/25 19:21:01;;;;;;;11.80;10.50;;;;;;;17.82;83.49;99820.17;225983;1277;24187;-72
2023/09/25 19:26:03;;;;;;;12.80;10.40;;;;;;;17.81;83.76;99822.41;225864;1280;138471;-73
2023/09/25 19:31:05;;;;;;;13.60;10.40;;;;;;;17.80;83.92;99821.65;225985;1275;138557;-72
2023/09/25 19:36:24;;;;;;;13.90;11.30;;;;;;;17.79;83.97;99819.05;225873;1276;138864;-72
2023/09/25 19:41:26;;;;;;;14.50;12.10;;;;;;;17.76;83.96;99814.86;225890;1275;138827;-72
2023/09/25 19:46:31;;;;;;;15.80;12.20;;;;;;;17.72;84.10;99812.02;225945;1275;138739;-73
2023/09/25 19:51:37;;;;;;;14.70;11.80;;;;;;;17.65;84.11;99811.91;225830;1277;138769;-72
2023/09/25 19:56:40;;;;;;;13.00;11.30;;;;;;;17.58;84.26;99810.86;225746;1280;22546;-72
2023/09/25 20:01:42;;;;;;;14.10;12.20;;;;;;;17.51;84.19;99813.42;225984;1276;139584;-72
2023/09/25 20:06:44;;;;;;;13.80;12.30;;;;;;;17.43;84.54;99807.39;225724;1279;138767;-73
2023/09/25 20:11:46;;;;;;;14.70;12.00;;;;;;;17.36;84.69;99803.33;225753;1280;138859;-73
2023/09/25 20:16:48;;;;;;;13.50;11.70;;;;;;;17.27;84.50;99803.08;225872;1280;138844;-73
2023/09/25 20:21:50;;;;;;;13.70;12.30;;;;;;;17.18;84.68;99802.22;225769;1279;138938;-73
2023/09/25 20:26:52;;;;;;;16.50;13.00;;;;;;;17.07;84.77;99808.30;225897;1280;23037;-72
2023/09/25 20:31:54;;;;;;;14.40;12.50;;;;;;;16.96;84.98;99809.60;225833;1279;138535;-73
2023/09/25 20:36:56;;;;;;;16.10;12.90;;;;;;;16.90;85.19;99811.09;225940;1279;139568;-72
2023/09/25 20:41:59;;;;;;;17.00;13.20;;;;;;;16.89;85.32;99808.82;225961;1275;138925;-72
2023/09/25 20:47:01;;;;;;;17.80;13.60;;;;;;;16.87;85.34;99808.48;225893;1278;138939;-72
2023/09/25 20:52:03;;;;;;;16.90;12.40;;;;;;;16.86;85.58;99806.30;225869;1276;138833;-73
2023/09/25 20:57:05;;;;;;;18.40;13.60;;;;;;;16.83;85.44;99809.59;225941;1276;22575;-72
2023/09/25 21:02:07;;;;;;;15.90;13.10;;;;;;;16.81;85.84;99812.73;225811;1276;139236;-73
2023/09/25 21:07:09;;;;;;;16.80;15.10;;;;;;;16.79;85.73;99815.52;225856;1276;138734;-72
2023/09/25 21:12:13;;;;;;;15.50;12.60;;;;;;;16.75;85.97;99810.29;225922;1279;138825;-73
2023/09/25 21:17:15;;;;;;;17.80;13.30;;;;;;;16.71;85.95;99806.16;225902;1279;139382;-73
2023/09/25 21:22:17;;;;;;;16.90;13.50;;;;;;;16.66;86.15;99806.21;225828;1275;138823;-73
2023/09/25 21:27:19;;;;;;;15.00;13.40;;;;;;;16.60;86.11;99802.50;225868;1276;22536;-72
2023/09/25 21:32:21;;;;;;;15.50;13.50;;;;;;;16.53;86.42;99796.30;225837;1279;138345;-72
2023/09/25 21:37:23;;;;;;;18.50;14.50;;;;;;;16.42;86.43;99797.30;225873;1279;138590;-73
2023/09/25 21:42:26;;;;;;;16.70;14.30;;;;;;;16.31;86.52;99798.09;225818;1272;138728;-73
2023/09/25 21:47:28;;;;;;;18.30;13.90;;;;;;;16.20;86.51;99794.27;225771;1275;138743;-72
2023/09/25 21:52:30;;;;;;;18.00;13.90;;;;;;;16.07;86.49;99788.64;225896;1272;138961;-72
2023/09/25 21:57:32;;;;;;;21.60;16.40;;;;;;;15.97;86.39;99782.50;225772;1279;138804;-72
2023/09/25 22:02:34;;;;;;;19.30;15.50;;;;;;;15.88;86.85;99782.02;225898;1276;22573;-72
2023/09/25 22:07:37;;;;;;;20.00;15.60;;;;;;;15.81;86.88;99780.08;225952;1275;138393;-72
2023/09/25 22:12:41;;;;;;;23.90;17.00;;;;;;;15.75;87.13;99778.96;225883;1276;139130;-73
2023/09/25 22:17:43;;;;;;;21.20;16.70;;;;;;;15.68;87.41;99777.14;225824;1276;139007;-72
2023/09/25 22:22:46;;;;;;;21.00;16.70;;;;;;;15.63;87.58;99772.63;225853;1278;138783;-72
2023/09/25 22:27:49;;;;;;;23.80;18.30;;;;;;;15.60;87.63;99776.38;225937;1275;139117;-72
2023/09/25 22:32:51;;;;;;;23.90;17.50;;;;;;;15.61;88.09;99774.54;225993;1275;22593;-73
2023/09/25 22:38:04;;;;;;;24.50;18.30;;;;;;;15.66;88.30;99766.55;225838;1273;138636;-72
2023/09/25 22:43:08;;;;;;;23.90;18.30;;;;;;;15.77;88.75;99763.69;225781;1273;138625;-72
2023/09/25 22:48:10;;;;;;;28.30;18.70;;;;;;;15.86;88.91;99760.25;225775;1276;138769;-71
2023/09/25 22:53:13;;;;;;;28.50;20.50;;;;;;;15.94;88.99;99754.30;225772;1280;138978;-72
2023/09/25 22:58:15;;;;;;;24.20;19.50;;;;;;;15.98;88.86;99747.96;225958;1272;138803;-72
2023/09/25 23:03:18;;;;;;;24.20;20.10;;;;;;;15.99;88.90;99744.23;225915;1275;22566;-72